Ana Sayfa
METAR-TAF:

METAR-TAF

Havaalanları :

Dare County Regional Airport

Manteo, Kuzey Carolina, Amerika Birleşik Devletleri

Enlem: 35-55N, Boylam: 075-42W, yükseklik: 4 m

Güncel hava durumu gözlemi

Rapor saat 20:55 UTC de 10 dakika önce yapıldı.
Rüzgar güneydan 5 kt
Sıcaklık 10°C
Nem 76%
Basınç 1018 hPa
Görüş mesafesi: 16.1 km
12000 ft yükseklikte parçalı bulutlu

METAR: KMQI 242055Z AUTO 17005KT 10SM SCT120 10/06 A3007 RMK AO2 T01030058

Saat: 16:05 (21:05 UTC)


TAF: eksik

4.000'den fazla havaalanı için hava durumu gözlemleri ve tahminleri (METAR ve TAF raporları).

Kullanılabilir istasyonlar harita üzerinde sarı ve kırmızı noktalarla gösterilir.

İstasyonun adını görmek için fareyi noktanın üzerinde gezdirin.

Sonrasında hava gözlem ve tahminlerini görmek için tıklayın.

Haritayı değiştirmek için: yaklaştırmak için siyah artı işaretli yeşil düğmeye ve uzaklaştırmak için de eksi işaretli düğmeye hızla tıklayın; bitişik haritalar için yeşil okları kullanın.


METAR-TAF: